Albury Airport

Airport
ICAO code: 
YMAY
IATA Code: 
ABX
Summary
ICAO Region: 
APAC
Territory: 
Location: 
, New South Wales
Serving: 
Albury
Elevation: 
539 ft
Coordinates: 
Aerial View: 
36° 4' 4.008" S, 146° 57' 29.016" E
Metar
Observation
YMAY 010200Z AUTO 34005KT 9999 // NCD 28/19 Q1014
Station
Albury Airport
Date/Time
2021-12-01 02:00:00
Wind direction
340°
Wind speed
05 kts
Lowest cloud amount
no clouds detected
Temperature
28°C
Dew point
19°C
Humidity
58%
QNH
1014 hPa
Weather condition
n/a

Runways

Designator Length Width Surface Rops
7/25 1900 30 ASP No/No
Airport map: 
Aerial View: 

SKYbrary Partners:

Safety knowledge contributed by: